createdAt,value
2019-03-10T00:00:55.414Z,101019.85
2019-03-10T00:05:00.761Z,101015.20
2019-03-10T00:09:07.938Z,101004.56
2019-03-10T00:13:13.621Z,100991.89
2019-03-10T00:17:19.063Z,100978.86
2019-03-10T00:21:24.530Z,100970.80
2019-03-10T00:25:30.242Z,100970.66
2019-03-10T00:29:36.194Z,100971.64
2019-03-10T00:33:41.636Z,100965.97
2019-03-10T00:37:47.163Z,100955.16
2019-03-10T00:42:33.518Z,100955.37
2019-03-10T00:47:30.687Z,100949.34
2019-03-10T00:52:10.701Z,100942.92
2019-03-10T00:56:16.723Z,100939.06
2019-03-10T01:00:22.140Z,100951.87
2019-03-10T01:04:27.834Z,100948.86
2019-03-10T01:08:33.987Z,100930.69
2019-03-10T01:12:39.518Z,100935.22
2019-03-10T01:16:45.779Z,100923.11
2019-03-10T01:20:52.809Z,100904.50
2019-03-10T01:24:58.474Z,100893.47
2019-03-10T01:29:04.421Z,100878.41
2019-03-10T01:34:10.783Z,100870.23
2019-03-10T01:38:16.148Z,100863.41
2019-03-10T01:42:21.399Z,100841.08
2019-03-10T01:46:26.898Z,100846.66
2019-03-10T01:50:32.503Z,100836.25
2019-03-10T01:54:38.471Z,100831.41
2019-03-10T01:58:43.827Z,100825.61
2019-03-10T02:02:49.521Z,100806.76
2019-03-10T02:06:55.251Z,100795.34
2019-03-10T02:11:01.293Z,100775.05
2019-03-10T02:15:07.728Z,100759.73
2019-03-10T02:19:13.084Z,100748.91
2019-03-10T02:23:18.502Z,100728.53
2019-03-10T02:27:23.911Z,100717.69
2019-03-10T02:31:29.597Z,100703.20
2019-03-10T02:35:35.036Z,100696.20
2019-03-10T02:39:40.494Z,100678.53
2019-03-10T02:43:45.909Z,100675.51
2019-03-10T02:47:51.360Z,100664.46
2019-03-10T02:52:12.754Z,100655.58
2019-03-10T02:56:18.455Z,100649.27
2019-03-10T03:00:23.937Z,100622.36
2019-03-10T03:04:29.375Z,100612.64
2019-03-10T03:08:34.843Z,100609.05
2019-03-10T03:12:40.301Z,100599.65
2019-03-10T03:16:46.024Z,100585.75
2019-03-10T03:20:51.453Z,100572.45
2019-03-10T03:24:56.976Z,100567.51
2019-03-10T03:29:02.401Z,100555.66
2019-03-10T03:33:08.294Z,100543.07
2019-03-10T03:37:17.943Z,100539.35
2019-03-10T03:41:23.482Z,100534.06
2019-03-10T03:45:28.938Z,100519.39
2019-03-10T03:49:34.377Z,100502.89
2019-03-10T03:53:39.722Z,100486.47
2019-03-10T03:57:45.271Z,100477.59
2019-03-10T04:01:57.576Z,100458.76
2019-03-10T04:06:03.037Z,100441.88
2019-03-10T04:10:08.544Z,100434.64
2019-03-10T04:14:14.003Z,100423.16
2019-03-10T04:18:19.698Z,100393.42
2019-03-10T04:22:25.069Z,100391.16
2019-03-10T04:26:30.685Z,100386.03
2019-03-10T04:30:36.497Z,100380.04
2019-03-10T04:34:41.976Z,100368.77
2019-03-10T04:38:47.575Z,100359.67
2019-03-10T04:42:53.284Z,100341.06
2019-03-10T04:46:58.659Z,100332.87
2019-03-10T04:51:04.114Z,100318.83
2019-03-10T04:55:19.126Z,100310.61
2019-03-10T04:59:27.621Z,100291.48
2019-03-10T05:03:32.977Z,100291.11
2019-03-10T05:07:38.413Z,100279.16
2019-03-10T05:11:43.881Z,100269.59
2019-03-10T05:15:49.402Z,100266.66
2019-03-10T05:19:54.758Z,100246.83
2019-03-10T05:24:06.280Z,100236.89
2019-03-10T05:28:11.628Z,100217.62
2019-03-10T05:32:17.297Z,100194.33
2019-03-10T05:36:22.737Z,100185.44
2019-03-10T05:40:28.020Z,100157.52
2019-03-10T05:44:33.459Z,100154.31
2019-03-10T05:48:38.811Z,100140.08
2019-03-10T05:52:44.246Z,100121.53
2019-03-10T05:56:49.870Z,100115.53
2019-03-10T06:00:55.310Z,100086.95
2019-03-10T06:05:00.638Z,100076.26
2019-03-10T06:09:07.767Z,100073.20
2019-03-10T06:13:13.270Z,100069.59
2019-03-10T06:17:21.380Z,100062.22
2019-03-10T06:21:26.221Z,100056.74
2019-03-10T06:25:34.886Z,100048.91
2019-03-10T06:29:38.847Z,100037.80
2019-03-10T06:33:44.251Z,100021.56
2019-03-10T06:37:49.677Z,100014.22
2019-03-10T06:41:54.960Z,99977.56
2019-03-10T06:46:00.384Z,99971.16
2019-03-10T06:50:06.374Z,99963.86
2019-03-10T06:54:11.836Z,99949.91
2019-03-10T06:58:17.277Z,99937.33
2019-03-10T07:02:22.918Z,99928.23
2019-03-10T07:06:28.257Z,99920.39
2019-03-10T07:10:33.737Z,99902.61
2019-03-10T07:14:39.010Z,99884.40
2019-03-10T07:18:44.358Z,99870.23
2019-03-10T07:22:49.830Z,99872.39
2019-03-10T07:26:55.515Z,99843.15
2019-03-10T07:31:18.910Z,99844.56
2019-03-10T07:35:51.576Z,99836.88
2019-03-10T07:40:28.215Z,99810.42
2019-03-10T07:44:41.321Z,99817.80
2019-03-10T07:48:59.792Z,99808.41
2019-03-10T07:53:22.621Z,99775.30
2019-03-10T07:57:49.296Z,99749.89
2019-03-10T08:02:22.749Z,99774.44
2019-03-10T08:06:53.239Z,99785.52
2019-03-10T08:11:18.357Z,99793.69
2019-03-10T08:15:42.588Z,99800.91
2019-03-10T08:20:02.859Z,99781.95
2019-03-10T08:24:36.417Z,99777.52
2019-03-10T08:29:10.621Z,99779.67
2019-03-10T08:33:33.989Z,99765.64
2019-03-10T08:37:50.491Z,99746.31
2019-03-10T08:42:19.474Z,99734.08
2019-03-10T08:46:24.879Z,99731.08
2019-03-10T08:50:40.711Z,99719.06
2019-03-10T08:55:01.485Z,99719.63
2019-03-10T08:59:26.119Z,99701.85
2019-03-10T09:03:50.651Z,99700.52
2019-03-10T09:08:32.811Z,99690.77
2019-03-10T09:13:06.054Z,99677.36
2019-03-10T09:17:33.200Z,99677.06
2019-03-10T09:22:09.241Z,99656.02
2019-03-10T09:26:52.570Z,99644.22
2019-03-10T09:31:17.174Z,99626.33
2019-03-10T09:35:28.000Z,99619.61
2019-03-10T09:39:42.367Z,99614.30
2019-03-10T09:44:00.306Z,99604.88
2019-03-10T09:48:18.027Z,99589.80
2019-03-10T09:52:36.390Z,99593.88
2019-03-10T09:56:49.593Z,99588.06
2019-03-10T10:01:32.912Z,99584.31
2019-03-10T10:05:49.783Z,99560.91
2019-03-10T10:10:02.476Z,99561.55
2019-03-10T10:14:29.916Z,99570.11
2019-03-10T10:19:00.146Z,99572.27
2019-03-10T10:23:14.258Z,99575.77
2019-03-10T10:27:39.043Z,99560.42
2019-03-10T10:31:59.081Z,99544.27
2019-03-10T10:36:21.868Z,99525.18
2019-03-10T10:41:01.404Z,99528.28
2019-03-10T10:45:17.093Z,99515.10
2019-03-10T10:49:35.383Z,99505.25
2019-03-10T10:54:05.454Z,99498.57
2019-03-10T10:58:27.934Z,99509.45
2019-03-10T11:02:50.309Z,99503.51
2019-03-10T11:07:07.002Z,99522.61
2019-03-10T11:11:43.434Z,99508.19
2019-03-10T11:16:06.338Z,99537.82
2019-03-10T11:20:20.977Z,99538.42
2019-03-10T11:24:45.327Z,99521.84
2019-03-10T11:29:02.662Z,99507.94
2019-03-10T11:33:27.762Z,99521.14
2019-03-10T11:38:04.243Z,99527.78
2019-03-10T11:42:19.630Z,99517.23
2019-03-10T11:46:43.988Z,99526.34
2019-03-10T11:51:06.836Z,99527.42
2019-03-10T11:55:28.882Z,99497.59
2019-03-10T11:59:39.983Z,99510.06
2019-03-10T12:03:51.059Z,99513.79
2019-03-10T12:08:15.486Z,99512.09
2019-03-10T12:12:20.980Z,99512.55
2019-03-10T12:16:26.678Z,99530.31
2019-03-10T12:20:32.259Z,99531.75
2019-03-10T12:24:37.688Z,99521.06
2019-03-10T12:28:43.238Z,99530.78
2019-03-10T12:32:48.997Z,99545.15
2019-03-10T12:36:54.551Z,99536.47
2019-03-10T12:41:00.594Z,99553.77
2019-03-10T12:45:06.631Z,99566.03
2019-03-10T12:49:12.056Z,99556.34
2019-03-10T12:53:17.494Z,99553.83
2019-03-10T12:57:22.933Z,99560.84
2019-03-10T13:01:29.117Z,99556.90
2019-03-10T13:05:34.571Z,99570.03
2019-03-10T13:09:39.828Z,99578.42
2019-03-10T13:13:45.262Z,99564.21
2019-03-10T13:17:50.802Z,99585.12
2019-03-10T13:21:59.520Z,99574.93
2019-03-10T13:26:09.534Z,99582.35
2019-03-10T13:30:15.964Z,99600.75
2019-03-10T13:34:22.219Z,99628.48
2019-03-10T13:38:27.741Z,99642.41
2019-03-10T13:43:00.233Z,99698.65
2019-03-10T13:47:05.681Z,99694.96
2019-03-10T13:51:11.421Z,99700.31
2019-03-10T13:55:17.142Z,99724.90
2019-03-10T13:59:22.577Z,99733.22
2019-03-10T14:03:28.206Z,99729.27
2019-03-10T14:07:33.624Z,99739.28
2019-03-10T14:11:39.074Z,99759.81
2019-03-10T14:15:44.685Z,99768.60
2019-03-10T14:19:50.103Z,99773.42
2019-03-10T14:23:55.531Z,99879.98
2019-03-10T14:28:00.955Z,99817.58
2019-03-10T14:32:06.457Z,99872.95
2019-03-10T14:36:11.810Z,99862.56
2019-03-10T14:40:17.753Z,99898.44
2019-03-10T14:44:23.208Z,99874.10
2019-03-10T14:48:28.644Z,99900.45
2019-03-10T14:52:34.068Z,99951.20
2019-03-10T14:56:39.494Z,99918.53
2019-03-10T15:00:44.964Z,99961.36
2019-03-10T15:04:50.574Z,99962.39
2019-03-10T15:08:56.002Z,99987.95
2019-03-10T15:13:01.479Z,100002.08
2019-03-10T15:17:06.922Z,100020.05
2019-03-10T15:21:12.339Z,100057.68
2019-03-10T15:25:17.783Z,100025.03
2019-03-10T15:29:23.124Z,100045.11
2019-03-10T15:33:28.668Z,100050.78
2019-03-10T15:37:34.351Z,100082.08
2019-03-10T15:41:40.039Z,100170.87
2019-03-10T15:45:45.716Z,100133.55
2019-03-10T15:49:51.110Z,100163.83
2019-03-10T15:53:56.572Z,100231.57
2019-03-10T15:58:03.910Z,100183.73
2019-03-10T16:02:09.150Z,100216.37
2019-03-10T16:06:14.589Z,100256.61
2019-03-10T16:10:20.018Z,100274.45
2019-03-10T16:14:25.370Z,100285.23
2019-03-10T16:18:30.878Z,100310.22
2019-03-10T16:22:36.533Z,100348.13
2019-03-10T16:26:42.021Z,100347.53
2019-03-10T16:30:47.476Z,100380.98
2019-03-10T16:34:52.826Z,100410.72
2019-03-10T16:38:58.391Z,100443.30
2019-03-10T16:43:03.816Z,100453.02
2019-03-10T16:47:09.291Z,100467.80
2019-03-10T16:51:14.715Z,100473.28
2019-03-10T16:55:20.135Z,100492.44
2019-03-10T16:59:25.820Z,100511.98
2019-03-10T17:03:31.527Z,100528.05
2019-03-10T17:07:36.965Z,100524.81
2019-03-10T17:11:42.814Z,100543.84
2019-03-10T17:15:48.485Z,100552.23
2019-03-10T17:19:54.433Z,100568.29
2019-03-10T17:24:00.114Z,100565.20
2019-03-10T17:28:05.566Z,100570.01
2019-03-10T17:32:11.058Z,100591.03
2019-03-10T17:36:16.478Z,100575.97
2019-03-10T17:40:21.898Z,100578.55
2019-03-10T17:44:27.625Z,100608.66
2019-03-10T17:48:33.224Z,100608.12
2019-03-10T17:52:38.553Z,100617.70
2019-03-10T17:56:43.967Z,100627.28
2019-03-10T18:00:49.420Z,100641.48
2019-03-10T18:04:54.832Z,100637.20
2019-03-10T18:09:00.273Z,100645.39
2019-03-10T18:13:05.735Z,100641.59
2019-03-10T18:17:11.207Z,100660.23
2019-03-10T18:21:16.956Z,100673.27
2019-03-10T18:25:22.359Z,100687.64
2019-03-10T18:29:27.802Z,100708.00
2019-03-10T18:33:33.432Z,100708.34
2019-03-10T18:37:38.900Z,100720.34
2019-03-10T18:41:44.361Z,100741.05
2019-03-10T18:45:49.992Z,100744.30
2019-03-10T18:49:55.702Z,100748.55
2019-03-10T18:54:01.218Z,100771.63
2019-03-10T18:58:06.683Z,100782.20
2019-03-10T19:02:12.275Z,100793.14
2019-03-10T19:06:17.792Z,100806.98
2019-03-10T19:10:23.409Z,100821.65
2019-03-10T19:14:28.897Z,100830.48
2019-03-10T19:18:34.635Z,100848.22
2019-03-10T19:22:40.512Z,100844.11
2019-03-10T19:26:46.010Z,100863.09
2019-03-10T19:30:51.547Z,100879.66
2019-03-10T19:34:57.099Z,100894.90
2019-03-10T19:39:02.627Z,100899.17
2019-03-10T19:43:08.044Z,100917.98
2019-03-10T19:47:13.469Z,100921.72
2019-03-10T19:51:19.153Z,100947.28
2019-03-10T19:55:24.848Z,100973.34
2019-03-10T19:59:30.088Z,100979.59
2019-03-10T20:03:36.003Z,100998.86
2019-03-10T20:07:41.491Z,101010.05
2019-03-10T20:11:47.214Z,100980.62
2019-03-10T20:15:52.878Z,100970.01
2019-03-10T20:19:58.523Z,100980.58
2019-03-10T20:24:04.228Z,100978.33
2019-03-10T20:28:09.823Z,100977.86
2019-03-10T20:32:15.303Z,100994.75
2019-03-10T20:36:20.729Z,100986.05
2019-03-10T20:40:26.408Z,100977.60
2019-03-10T20:44:31.856Z,100968.14
2019-03-10T20:48:37.319Z,100964.02
2019-03-10T20:52:42.742Z,100962.98
2019-03-10T20:56:48.567Z,100961.44
2019-03-10T21:00:54.065Z,100973.33
2019-03-10T21:04:59.529Z,100954.64
2019-03-10T21:09:06.775Z,100962.52
2019-03-10T21:13:12.145Z,100961.45
2019-03-10T21:17:18.040Z,100959.29
2019-03-10T21:21:23.603Z,100958.78
2019-03-10T21:25:29.089Z,100967.89
2019-03-10T21:29:34.561Z,100979.48
2019-03-10T21:33:39.940Z,100981.88
2019-03-10T21:37:45.992Z,100990.61
2019-03-10T21:41:51.420Z,100994.47
2019-03-10T21:45:56.856Z,100989.53
2019-03-10T21:50:02.345Z,100995.12
2019-03-10T21:54:07.893Z,101001.78
2019-03-10T21:58:13.311Z,101002.36
2019-03-10T22:02:18.771Z,100997.98
2019-03-10T22:06:24.585Z,101000.98
2019-03-10T22:10:30.007Z,100995.83
2019-03-10T22:14:35.991Z,101002.45
2019-03-10T22:18:41.480Z,101003.52
2019-03-10T22:22:49.883Z,100999.91
2019-03-10T22:26:54.515Z,101004.94
2019-03-10T22:30:59.971Z,100999.85
2019-03-10T22:35:06.138Z,101007.34
2019-03-10T22:39:11.498Z,100993.98
2019-03-10T22:43:16.902Z,100989.70
2019-03-10T22:47:22.332Z,100991.38
2019-03-10T22:51:27.691Z,100998.58
2019-03-10T22:55:33.179Z,100990.42
2019-03-10T22:59:38.440Z,100984.50
2019-03-10T23:03:43.884Z,100981.66
2019-03-10T23:07:49.230Z,100983.33
2019-03-10T23:11:55.122Z,100992.84
2019-03-10T23:16:00.532Z,100988.33
2019-03-10T23:20:08.454Z,100969.67
2019-03-10T23:24:14.170Z,100960.64
2019-03-10T23:28:19.624Z,100943.73
2019-03-10T23:32:25.604Z,100950.71
2019-03-10T23:36:30.987Z,100950.25
2019-03-10T23:40:36.417Z,100938.52
2019-03-10T23:44:41.783Z,100925.59
2019-03-10T23:48:47.508Z,100917.96
2019-03-10T23:52:52.853Z,100912.50
2019-03-10T23:56:58.516Z,100908.71
